createdAt,value
2022-11-10T00:01:51.350Z,53.10
2022-11-10T00:04:42.498Z,55.80
2022-11-10T00:07:33.187Z,56.30
2022-11-10T00:10:23.706Z,56.10
2022-11-10T00:13:14.940Z,57.80
2022-11-10T00:16:27.200Z,53.50
2022-11-10T00:19:17.739Z,53.60
2022-11-10T00:22:09.635Z,59.30
2022-11-10T00:25:01.055Z,53.90
2022-11-10T00:27:51.873Z,53.30
2022-11-10T00:30:46.668Z,56.80
2022-11-10T00:33:38.899Z,57.00
2022-11-10T00:36:29.443Z,51.90
2022-11-10T00:39:20.234Z,54.50
2022-11-10T00:42:11.496Z,57.60
2022-11-10T00:45:03.526Z,61.50
2022-11-10T00:47:54.795Z,48.30
2022-11-10T00:50:46.633Z,58.70
2022-11-10T00:53:37.911Z,51.40
2022-11-10T00:56:29.443Z,54.10
2022-11-10T00:59:21.066Z,54.20
2022-11-10T01:02:11.921Z,58.10
2022-11-10T01:05:03.659Z,51.60
2022-11-10T01:07:55.129Z,61.20
2022-11-10T01:10:46.646Z,51.80
2022-11-10T01:13:38.641Z,50.70
2022-11-10T01:16:31.270Z,49.40
2022-11-10T01:19:22.177Z,52.20
2022-11-10T01:22:13.313Z,50.00
2022-11-10T01:25:07.991Z,52.60
2022-11-10T01:28:00.017Z,55.20
2022-11-10T01:30:51.080Z,51.00
2022-11-10T01:33:42.226Z,52.20
2022-11-10T01:36:34.145Z,45.70
2022-11-10T01:39:24.817Z,56.40
2022-11-10T01:42:15.259Z,50.70
2022-11-10T01:46:00.429Z,58.00
2022-11-10T01:48:56.169Z,55.90
2022-11-10T01:51:53.215Z,52.20
2022-11-10T01:54:47.746Z,53.00
2022-11-10T01:57:40.137Z,52.10
2022-11-10T02:00:31.276Z,57.00
2022-11-10T02:03:30.175Z,53.90
2022-11-10T02:06:24.248Z,55.30
2022-11-10T02:09:17.434Z,51.80
2022-11-10T02:12:09.759Z,51.20
2022-11-10T02:15:00.827Z,47.60
2022-11-10T02:17:51.717Z,54.50
2022-11-10T02:20:45.492Z,54.20
2022-11-10T02:23:53.331Z,52.50
2022-11-10T02:26:49.811Z,50.40
2022-11-10T02:29:42.437Z,49.40
2022-11-10T02:32:33.699Z,49.70
2022-11-10T02:35:24.555Z,54.00
2022-11-10T02:38:16.624Z,53.50
2022-11-10T02:41:08.597Z,49.50
2022-11-10T02:44:00.789Z,58.00
2022-11-10T02:46:51.333Z,49.70
2022-11-10T02:49:42.037Z,54.10
2022-11-10T02:52:33.664Z,51.30
2022-11-10T02:55:25.047Z,51.60
2022-11-10T02:58:15.506Z,50.10
2022-11-10T03:01:09.091Z,55.70
2022-11-10T03:03:59.947Z,48.40
2022-11-10T03:06:50.712Z,54.80
2022-11-10T03:09:42.282Z,50.00
2022-11-10T03:12:32.928Z,50.80
2022-11-10T03:15:24.427Z,56.70
2022-11-10T03:18:14.793Z,53.20
2022-11-10T03:21:05.347Z,46.40
2022-11-10T03:23:56.883Z,55.40
2022-11-10T03:26:47.582Z,48.70
2022-11-10T03:29:38.792Z,50.90
2022-11-10T03:32:29.524Z,48.70
2022-11-10T03:35:21.284Z,52.00
2022-11-10T03:38:12.096Z,47.90
2022-11-10T03:41:19.878Z,53.90
2022-11-10T03:44:11.412Z,52.50
2022-11-10T03:47:04.050Z,44.10
2022-11-10T03:49:55.278Z,49.80
2022-11-10T03:52:48.892Z,45.20
2022-11-10T03:55:40.365Z,52.00
2022-11-10T03:58:32.658Z,50.60
2022-11-10T04:01:23.972Z,51.60
2022-11-10T04:04:29.666Z,60.70
2022-11-10T04:07:37.788Z,50.80
2022-11-10T04:10:28.182Z,53.40
2022-11-10T04:13:36.587Z,47.60
2022-11-10T04:16:27.513Z,54.80
2022-11-10T04:19:18.891Z,51.40
2022-11-10T04:22:29.554Z,48.30
2022-11-10T04:25:20.400Z,47.60
2022-11-10T04:28:11.069Z,46.70
2022-11-10T04:31:02.283Z,44.10
2022-11-10T04:33:55.959Z,48.50
2022-11-10T04:36:49.006Z,49.20
2022-11-10T04:39:39.511Z,41.70
2022-11-10T04:42:30.174Z,45.70
2022-11-10T04:45:21.303Z,46.10
2022-11-10T04:48:12.163Z,46.30
2022-11-10T04:51:08.004Z,44.30
2022-11-10T04:53:59.689Z,47.70
2022-11-10T04:56:51.021Z,45.10
2022-11-10T04:59:42.359Z,42.30
2022-11-10T05:02:38.284Z,42.10
2022-11-10T05:05:31.138Z,44.80
2022-11-10T05:08:22.070Z,40.20
2022-11-10T05:11:13.243Z,42.70
2022-11-10T05:14:03.830Z,40.70
2022-11-10T05:16:54.622Z,36.00
2022-11-10T05:19:47.580Z,41.40
2022-11-10T05:22:38.659Z,36.30
2022-11-10T05:25:29.870Z,39.40
2022-11-10T05:28:21.282Z,36.70
2022-11-10T05:31:13.039Z,38.40
2022-11-10T05:34:04.443Z,32.90
2022-11-10T05:36:55.348Z,33.00
2022-11-10T05:39:46.571Z,34.50
2022-11-10T05:42:43.286Z,35.50
2022-11-10T05:45:34.815Z,35.30
2022-11-10T05:48:25.937Z,35.50
2022-11-10T05:51:16.804Z,32.20
2022-11-10T05:54:08.874Z,32.00
2022-11-10T05:56:59.804Z,31.20
2022-11-10T05:59:50.556Z,27.90
2022-11-10T06:02:41.891Z,28.80
2022-11-10T06:05:35.082Z,28.10
2022-11-10T06:08:26.470Z,38.00
2022-11-10T06:11:17.016Z,27.20
2022-11-10T06:14:08.294Z,32.70
2022-11-10T06:16:59.570Z,30.50
2022-11-10T06:19:51.162Z,23.80
2022-11-10T06:22:42.471Z,29.70
2022-11-10T06:25:34.647Z,26.80
2022-11-10T06:28:25.617Z,28.70
2022-11-10T06:31:16.713Z,31.20
2022-11-10T06:34:07.345Z,30.30
2022-11-10T06:36:58.594Z,29.90
2022-11-10T06:39:49.046Z,29.70
2022-11-10T06:42:40.293Z,37.50
2022-11-10T06:45:31.527Z,28.50
2022-11-10T06:48:22.707Z,31.10
2022-11-10T06:51:13.536Z,25.10
2022-11-10T06:54:04.385Z,27.90
2022-11-10T06:56:55.936Z,27.30
2022-11-10T06:59:48.169Z,26.10
2022-11-10T07:02:39.325Z,21.80
2022-11-10T07:05:31.064Z,28.30
2022-11-10T07:08:22.603Z,30.20
2022-11-10T07:11:14.270Z,23.20
2022-11-10T07:14:05.186Z,32.40
2022-11-10T07:16:55.453Z,24.40
2022-11-10T07:19:46.242Z,24.10
2022-11-10T07:22:36.916Z,26.70
2022-11-10T07:25:28.079Z,28.30
2022-11-10T07:28:18.500Z,29.20
2022-11-10T07:31:10.766Z,23.60
2022-11-10T07:34:03.578Z,24.10
2022-11-10T07:36:55.953Z,24.30
2022-11-10T07:39:48.454Z,20.70
2022-11-10T07:42:45.794Z,26.70
2022-11-10T07:45:37.911Z,25.50
2022-11-10T07:48:29.211Z,20.60
2022-11-10T07:51:21.193Z,23.20
2022-11-10T07:54:12.682Z,23.60
2022-11-10T07:57:04.309Z,21.00
2022-11-10T07:59:57.942Z,21.40
2022-11-10T08:02:52.646Z,16.90
2022-11-10T08:05:44.521Z,26.10
2022-11-10T08:08:35.801Z,23.90
2022-11-10T08:11:27.405Z,18.80
2022-11-10T08:14:18.500Z,24.90
2022-11-10T08:17:10.968Z,17.50
2022-11-10T08:20:02.534Z,9.50
2022-11-10T08:22:59.961Z,16.30
2022-11-10T08:25:53.453Z,16.20
2022-11-10T08:28:45.986Z,20.20
2022-11-10T08:31:38.753Z,10.70
2022-11-10T08:34:30.156Z,16.30
2022-11-10T08:37:21.539Z,11.10
2022-11-10T08:40:28.448Z,13.40
2022-11-10T08:43:21.112Z,16.00
2022-11-10T08:46:13.106Z,10.90
2022-11-10T08:49:04.542Z,16.20
2022-11-10T08:51:57.039Z,13.20
2022-11-10T08:54:50.530Z,17.20
2022-11-10T08:57:42.418Z,10.10
2022-11-10T09:00:34.369Z,8.70
2022-11-10T09:03:27.874Z,12.20
2022-11-10T09:09:10.917Z,12.80
2022-11-10T09:14:52.719Z,17.00
2022-11-10T09:17:46.458Z,13.50
2022-11-10T09:20:39.028Z,12.30
2022-11-10T09:23:31.886Z,13.20
2022-11-10T09:26:22.868Z,14.00
2022-11-10T09:29:15.826Z,13.10
2022-11-10T09:32:08.341Z,7.70
2022-11-10T09:35:02.764Z,12.00
2022-11-10T09:37:54.654Z,12.50
2022-11-10T09:40:57.035Z,10.60
2022-11-10T09:44:04.366Z,10.60
2022-11-10T09:47:01.637Z,12.80
2022-11-10T09:49:59.070Z,9.60
2022-11-10T09:52:53.809Z,11.90
2022-11-10T09:55:50.849Z,13.50
2022-11-10T09:58:45.792Z,13.90
2022-11-10T10:01:47.084Z,11.00
2022-11-10T10:05:04.197Z,18.70
2022-11-10T10:08:02.589Z,13.10
2022-11-10T10:11:09.322Z,11.30
2022-11-10T10:14:18.145Z,14.30
2022-11-10T10:17:22.631Z,9.10
2022-11-10T10:20:21.416Z,13.80
2022-11-10T10:23:40.397Z,11.30
2022-11-10T10:26:40.684Z,12.10
2022-11-10T10:29:39.191Z,12.90
2022-11-10T10:32:31.104Z,10.50
2022-11-10T10:35:22.577Z,8.00
2022-11-10T10:38:21.839Z,8.70
2022-11-10T10:41:23.990Z,10.80
2022-11-10T10:44:17.829Z,13.30
2022-11-10T10:47:08.965Z,10.90
2022-11-10T10:50:22.300Z,9.60
2022-11-10T10:53:20.517Z,9.00
2022-11-10T10:56:21.590Z,10.20
2022-11-10T10:59:21.907Z,8.30
2022-11-10T11:02:26.532Z,10.40
2022-11-10T11:05:20.276Z,16.70
2022-11-10T11:08:22.169Z,6.20
2022-11-10T11:11:15.219Z,12.40
2022-11-10T11:14:22.746Z,6.00
2022-11-10T11:17:20.048Z,8.60
2022-11-10T11:20:16.725Z,11.50
2022-11-10T11:23:17.887Z,7.20
2022-11-10T11:26:19.446Z,8.50
2022-11-10T11:29:27.783Z,11.70
2022-11-10T11:32:31.541Z,11.70
2022-11-10T11:35:32.561Z,11.10
2022-11-10T11:38:31.859Z,6.80
2022-11-10T11:41:34.365Z,10.40
2022-11-10T11:44:54.739Z,8.20
2022-11-10T11:48:01.677Z,15.10
2022-11-10T11:50:57.855Z,10.00
2022-11-10T11:54:12.018Z,10.10
2022-11-10T11:57:17.809Z,11.20
2022-11-10T12:00:16.819Z,8.30
2022-11-10T12:03:34.091Z,12.70
2022-11-10T12:06:36.846Z,6.40
2022-11-10T12:09:38.615Z,12.60
2022-11-10T12:12:57.237Z,8.90
2022-11-10T12:15:56.821Z,5.90
2022-11-10T12:18:58.202Z,11.10
2022-11-10T12:21:53.373Z,10.10
2022-11-10T12:24:57.712Z,5.80
2022-11-10T12:27:52.355Z,12.00
2022-11-10T12:30:46.023Z,8.70
2022-11-10T12:33:46.908Z,8.80
2022-11-10T12:36:38.938Z,10.60
2022-11-10T12:39:44.406Z,6.70
2022-11-10T12:42:38.989Z,5.00
2022-11-10T12:45:35.348Z,13.00
2022-11-10T12:48:29.365Z,9.60
2022-11-10T12:51:25.947Z,9.10
2022-11-10T12:54:19.389Z,8.70
2022-11-10T12:57:16.815Z,7.20
2022-11-10T13:00:28.419Z,21.50
2022-11-10T13:03:30.584Z,8.50
2022-11-10T13:06:30.068Z,9.80
2022-11-10T13:09:33.564Z,13.50
2022-11-10T13:12:26.617Z,12.00
2022-11-10T13:16:02.548Z,11.40
2022-11-10T13:18:57.797Z,8.00
2022-11-10T13:22:34.265Z,9.00
2022-11-10T13:25:56.174Z,9.10
2022-11-10T13:29:01.637Z,8.40
2022-11-10T13:31:59.260Z,14.90
2022-11-10T13:34:52.323Z,8.60
2022-11-10T13:38:00.038Z,5.80
2022-11-10T13:40:51.706Z,6.30
2022-11-10T13:43:51.506Z,9.70
2022-11-10T13:46:56.402Z,10.00
2022-11-10T13:50:02.874Z,11.00
2022-11-10T13:53:10.677Z,7.30
2022-11-10T13:56:19.763Z,14.50
2022-11-10T13:59:23.471Z,13.70
2022-11-10T14:02:52.060Z,6.30
2022-11-10T14:06:11.972Z,9.20
2022-11-10T14:09:13.385Z,7.80
2022-11-10T14:12:15.555Z,6.50
2022-11-10T14:15:14.535Z,8.30
2022-11-10T14:18:15.950Z,7.30
2022-11-10T14:21:12.532Z,10.00
2022-11-10T14:24:12.786Z,5.90
2022-11-10T14:27:15.825Z,7.90
2022-11-10T14:30:20.036Z,8.30
2022-11-10T14:33:14.974Z,11.20
2022-11-10T14:36:09.816Z,7.70
2022-11-10T14:39:01.194Z,6.40
2022-11-10T14:41:53.948Z,6.30
2022-11-10T14:44:44.656Z,12.40
2022-11-10T14:47:38.049Z,10.30
2022-11-10T14:50:32.954Z,13.20
2022-11-10T14:53:29.424Z,7.00
2022-11-10T14:56:24.717Z,10.70
2022-11-10T14:59:17.288Z,11.20
2022-11-10T15:05:06.523Z,10.80
2022-11-10T15:08:01.145Z,18.00
2022-11-10T15:10:56.350Z,16.50
2022-11-10T15:13:47.042Z,11.00
2022-11-10T15:16:41.443Z,14.40
2022-11-10T15:19:36.537Z,11.50
2022-11-10T15:22:32.743Z,14.50
2022-11-10T15:25:26.561Z,9.60
2022-11-10T15:28:25.564Z,9.10
2022-11-10T15:31:25.582Z,10.70
2022-11-10T15:34:40.516Z,10.10
2022-11-10T15:37:34.441Z,14.10
2022-11-10T15:40:47.471Z,14.90
2022-11-10T15:43:38.623Z,10.30
2022-11-10T15:46:31.102Z,10.80
2022-11-10T15:49:33.151Z,13.20
2022-11-10T15:52:25.145Z,13.80
2022-11-10T15:55:25.077Z,25.30
2022-11-10T15:58:20.557Z,26.20
2022-11-10T16:01:14.110Z,18.20
2022-11-10T16:04:04.505Z,19.60
2022-11-10T16:06:57.108Z,19.10
2022-11-10T16:09:48.595Z,10.70
2022-11-10T16:12:39.602Z,14.10
2022-11-10T16:15:31.124Z,13.80
2022-11-10T16:18:24.224Z,18.40
2022-11-10T16:21:16.658Z,20.00
2022-11-10T16:24:07.818Z,19.70
2022-11-10T16:26:58.728Z,19.20
2022-11-10T16:29:49.245Z,19.40
2022-11-10T16:32:41.011Z,24.00
2022-11-10T16:35:31.544Z,22.30
2022-11-10T16:38:25.315Z,24.70
2022-11-10T16:41:16.767Z,20.50
2022-11-10T16:44:11.131Z,27.00
2022-11-10T16:47:02.925Z,23.60
2022-11-10T16:49:53.557Z,22.70
2022-11-10T16:52:44.309Z,33.10
2022-11-10T16:55:34.984Z,20.00
2022-11-10T16:58:27.455Z,18.30
2022-11-10T17:01:22.694Z,20.40
2022-11-10T17:04:16.193Z,21.70
2022-11-10T17:10:05.213Z,17.60
2022-11-10T17:12:55.959Z,21.00
2022-11-10T17:15:47.307Z,23.90
2022-11-10T17:18:38.610Z,32.80
2022-11-10T17:21:33.144Z,31.30
2022-11-10T17:24:24.730Z,19.80
2022-11-10T17:27:16.884Z,24.70
2022-11-10T17:30:10.519Z,28.30
2022-11-10T17:33:05.686Z,31.40
2022-11-10T17:35:58.253Z,25.70
2022-11-10T17:38:49.126Z,26.90
2022-11-10T17:41:39.525Z,29.00
2022-11-10T17:44:30.368Z,29.50
2022-11-10T17:47:21.195Z,21.50
2022-11-10T17:50:12.483Z,27.30
2022-11-10T17:53:16.052Z,24.20
2022-11-10T17:58:56.204Z,29.30
2022-11-10T18:01:47.224Z,27.50
2022-11-10T18:04:38.251Z,27.30
2022-11-10T18:07:28.756Z,24.30
2022-11-10T18:10:19.475Z,24.90
2022-11-10T18:13:10.777Z,24.30
2022-11-10T18:16:01.589Z,25.30
2022-11-10T18:18:51.969Z,30.60
2022-11-10T18:21:42.491Z,26.30
2022-11-10T18:24:33.249Z,25.20
2022-11-10T18:27:23.932Z,29.20
2022-11-10T18:30:19.056Z,22.90
2022-11-10T18:33:10.943Z,25.00
2022-11-10T18:36:02.247Z,27.90
2022-11-10T18:38:52.783Z,26.00
2022-11-10T18:41:52.662Z,22.80
2022-11-10T18:44:43.307Z,17.30
2022-11-10T18:47:33.736Z,20.20
2022-11-10T18:50:24.288Z,15.40
2022-11-10T18:53:14.692Z,20.20
2022-11-10T18:56:05.537Z,19.10
2022-11-10T18:58:57.036Z,17.90
2022-11-10T19:01:48.347Z,22.40
2022-11-10T19:04:39.131Z,20.90
2022-11-10T19:07:29.726Z,24.30
2022-11-10T19:10:20.446Z,21.30
2022-11-10T19:13:10.841Z,19.00
2022-11-10T19:16:04.032Z,21.40
2022-11-10T19:18:54.706Z,23.10
2022-11-10T19:21:45.508Z,16.80
2022-11-10T19:24:53.646Z,21.40
2022-11-10T19:27:46.877Z,24.80
2022-11-10T19:30:37.247Z,21.70
2022-11-10T19:33:28.737Z,21.60
2022-11-10T19:36:21.515Z,22.30
2022-11-10T19:39:12.492Z,25.20
2022-11-10T19:42:03.393Z,29.80
2022-11-10T19:44:54.519Z,23.70
2022-11-10T19:47:45.576Z,25.10
2022-11-10T19:50:36.278Z,26.00
2022-11-10T19:53:26.931Z,24.60
2022-11-10T19:56:20.214Z,27.90
2022-11-10T19:59:13.353Z,27.00
2022-11-10T20:02:04.480Z,26.20
2022-11-10T20:05:17.985Z,25.50
2022-11-10T20:08:13.716Z,25.30
2022-11-10T20:11:08.109Z,23.80
2022-11-10T20:14:00.738Z,27.70
2022-11-10T20:16:51.173Z,27.70
2022-11-10T20:19:42.096Z,35.00
2022-11-10T20:22:38.388Z,29.30
2022-11-10T20:25:30.569Z,24.20
2022-11-10T20:28:21.819Z,25.40
2022-11-10T20:31:16.152Z,26.70
2022-11-10T20:34:07.063Z,27.70
2022-11-10T20:36:57.997Z,25.10
2022-11-10T20:39:50.191Z,25.20
2022-11-10T20:42:42.817Z,25.50
2022-11-10T20:45:35.113Z,26.90
2022-11-10T20:48:26.513Z,23.90
2022-11-10T20:51:19.390Z,26.30
2022-11-10T20:54:10.947Z,25.50
2022-11-10T20:57:01.912Z,24.20
2022-11-10T20:59:52.117Z,26.80
2022-11-10T21:02:43.279Z,29.80
2022-11-10T21:05:33.690Z,21.30
2022-11-10T21:08:24.494Z,23.60
2022-11-10T21:11:36.039Z,40.70
2022-11-10T21:14:27.587Z,22.70
2022-11-10T21:17:18.342Z,23.60
2022-11-10T21:20:10.897Z,23.90
2022-11-10T21:23:03.609Z,24.90
2022-11-10T21:26:00.477Z,22.00
2022-11-10T21:28:52.530Z,21.80
2022-11-10T21:31:44.317Z,24.10
2022-11-10T21:34:35.723Z,23.20
2022-11-10T21:37:26.937Z,25.50
2022-11-10T21:40:17.867Z,22.40
2022-11-10T21:43:08.603Z,23.20
2022-11-10T21:46:01.769Z,19.90
2022-11-10T21:48:52.611Z,24.80
2022-11-10T21:51:43.685Z,28.40
2022-11-10T21:54:34.189Z,21.00
2022-11-10T21:57:24.647Z,28.00
2022-11-10T22:00:16.602Z,21.90
2022-11-10T22:03:07.423Z,27.30
2022-11-10T22:06:03.038Z,22.00
2022-11-10T22:08:53.923Z,27.20
2022-11-10T22:12:01.849Z,22.60
2022-11-10T22:15:09.486Z,25.00
2022-11-10T22:18:17.849Z,30.10
2022-11-10T22:21:09.733Z,20.00
2022-11-10T22:24:17.366Z,21.80
2022-11-10T22:27:09.037Z,20.30
2022-11-10T22:30:00.360Z,21.90
2022-11-10T22:32:50.959Z,22.00
2022-11-10T22:35:44.064Z,25.80
2022-11-10T22:41:42.835Z,18.50
2022-11-10T22:44:33.269Z,20.10
2022-11-10T22:47:23.753Z,20.00
2022-11-10T22:50:14.206Z,17.20
2022-11-10T22:53:05.249Z,18.20
2022-11-10T22:55:59.604Z,20.30
2022-11-10T22:58:50.036Z,18.90
2022-11-10T23:01:42.464Z,17.90
2022-11-10T23:04:33.788Z,24.20
2022-11-10T23:07:24.399Z,15.10
2022-11-10T23:10:15.378Z,15.10
2022-11-10T23:13:06.154Z,23.90
2022-11-10T23:16:02.115Z,15.20
2022-11-10T23:18:53.584Z,18.00
2022-11-10T23:21:44.424Z,14.10
2022-11-10T23:24:36.277Z,17.30
2022-11-10T23:27:27.195Z,18.20
2022-11-10T23:30:17.889Z,20.80
2022-11-10T23:33:08.806Z,19.90
2022-11-10T23:35:59.587Z,16.50
2022-11-10T23:38:50.669Z,19.60
2022-11-10T23:41:41.356Z,18.20
2022-11-10T23:44:31.981Z,17.70
2022-11-10T23:47:24.653Z,20.00
2022-11-10T23:50:15.006Z,21.20
2022-11-10T23:53:05.305Z,19.90
2022-11-10T23:56:03.325Z,21.50
2022-11-10T23:58:53.669Z,15.30
